7M7 weather

Piggott Municipal Airport
Piggott, Arkansas, United States

Public forecast

Using degrees Fahrenheit for public forecast. Weather courtesy of forecast.io.

METAR (pilot weather report)

Closest report is Kennett Memorial Airport, 11.1 nm (20.5 km) SE. Retrieved 2019/05/25 20:35 UTC (6 minutes ago):

KTKX 252035Z AUTO 23010KT 10SM SCT050 SCT065 BKN075 32/20 A3006 RMK AO2

TAF (pilot weather forecast)

Closest forecast is Jonesboro Municipal Airport, 40.2 nm (74.5 km) SW. Retrieved 2019/05/25 18:36 UTC (2 hours ago):

TAF KJBR 251733Z 2518/2618 22012G19KT P6SM SCT045 FM260100 20006KT P6SM SKC FM261500 22012G17KT P6SM SCT050